createdAt,value
2023-10-25T00:00:45.146Z,9.430351
2023-10-25T00:01:45.067Z,9.430344
2023-10-25T00:02:45.238Z,9.430359
2023-10-25T00:03:45.073Z,9.430306
2023-10-25T00:04:45.061Z,9.430370
2023-10-25T00:05:45.002Z,9.430340
2023-10-25T00:06:44.983Z,9.430314
2023-10-25T00:07:44.971Z,9.430335
2023-10-25T00:08:44.971Z,9.430357
2023-10-25T00:09:45.043Z,9.430333
2023-10-25T00:10:44.961Z,9.430338
2023-10-25T00:11:44.912Z,9.430384
2023-10-25T00:12:44.917Z,9.430349
2023-10-25T00:13:44.887Z,9.430350
2023-10-25T00:14:45.582Z,9.430332
2023-10-25T00:15:44.886Z,9.430306
2023-10-25T00:16:44.938Z,9.430308
2023-10-25T00:17:44.920Z,9.430339
2023-10-25T00:18:44.906Z,9.430348
2023-10-25T00:19:44.834Z,9.430301
2023-10-25T00:20:44.840Z,9.430291
2023-10-25T00:21:44.927Z,9.430293
2023-10-25T00:22:44.792Z,9.430320
2023-10-25T00:23:44.772Z,9.430320
2023-10-25T00:24:44.843Z,9.430341
2023-10-25T00:25:45.642Z,9.430343
2023-10-25T00:26:44.796Z,9.430346
2023-10-25T00:27:44.770Z,9.430325
2023-10-25T00:28:44.723Z,9.430352
2023-10-25T00:29:44.770Z,9.430334
2023-10-25T00:30:44.805Z,9.430399
2023-10-25T00:31:45.023Z,9.430353
2023-10-25T00:32:44.739Z,9.430294
2023-10-25T00:33:45.363Z,9.430305
2023-10-25T00:34:44.680Z,9.430373
2023-10-25T00:35:45.748Z,9.430355
2023-10-25T00:36:44.704Z,9.430372
2023-10-25T00:37:44.646Z,9.430332
2023-10-25T00:38:45.667Z,9.430288
2023-10-25T00:39:44.817Z,9.430274
2023-10-25T00:40:46.002Z,9.430264
2023-10-25T00:41:44.606Z,9.430303
2023-10-25T00:42:46.307Z,9.430307
2023-10-25T00:43:44.580Z,9.430292
2023-10-25T00:44:44.574Z,9.430305
2023-10-25T00:45:44.575Z,9.430301
2023-10-25T00:46:44.609Z,9.430326
2023-10-25T00:47:44.639Z,9.430293
2023-10-25T00:48:44.584Z,9.430243
2023-10-25T00:49:44.591Z,9.430285
2023-10-25T00:50:44.517Z,9.430291
2023-10-25T00:51:44.497Z,9.430294
2023-10-25T00:52:44.541Z,9.430317
2023-10-25T00:53:44.524Z,9.430313
2023-10-25T00:54:44.513Z,9.430308
2023-10-25T00:55:44.461Z,9.430279
2023-10-25T00:56:44.447Z,9.430285
2023-10-25T00:57:44.513Z,9.430276
2023-10-25T00:58:44.883Z,9.430242
2023-10-25T00:59:44.397Z,9.430276
2023-10-25T01:00:44.464Z,9.430287
2023-10-25T01:01:44.443Z,9.430294
2023-10-25T01:02:44.595Z,9.430305
2023-10-25T01:03:45.020Z,9.430308
2023-10-25T01:04:44.449Z,9.430312
2023-10-25T01:05:44.915Z,9.430285
2023-10-25T01:06:44.522Z,9.430305
2023-10-25T01:07:44.322Z,9.430280
2023-10-25T01:08:46.953Z,9.430326
2023-10-25T01:09:45.320Z,9.430351
2023-10-25T01:10:44.303Z,9.430326
2023-10-25T01:11:44.328Z,9.430322
2023-10-25T01:12:44.344Z,9.430312
2023-10-25T01:13:44.320Z,9.430304
2023-10-25T01:14:46.538Z,9.430320
2023-10-25T01:15:44.303Z,9.430319
2023-10-25T01:16:44.337Z,9.430324
2023-10-25T01:17:44.271Z,9.430284
2023-10-25T01:18:44.308Z,9.430295
2023-10-25T01:19:44.276Z,9.430287
2023-10-25T01:20:46.098Z,9.430310
2023-10-25T01:21:45.054Z,9.430334
2023-10-25T01:22:44.802Z,9.430325
2023-10-25T01:23:44.155Z,9.430339
2023-10-25T01:24:45.202Z,9.430366
2023-10-25T01:25:44.153Z,9.430363
2023-10-25T01:26:44.150Z,9.430332
2023-10-25T01:27:44.194Z,9.430342
2023-10-25T01:28:44.127Z,9.430326
2023-10-25T01:29:44.578Z,9.430471
2023-10-25T01:30:44.159Z,9.430481
2023-10-25T01:31:44.128Z,9.430489
2023-10-25T01:32:44.141Z,9.430502
2023-10-25T01:33:44.120Z,9.430451
2023-10-25T01:34:44.063Z,9.430478
2023-10-25T01:35:44.012Z,9.430452
2023-10-25T01:36:44.009Z,9.430489
2023-10-25T01:37:43.980Z,9.430364
2023-10-25T01:38:43.973Z,9.430387
2023-10-25T01:39:44.130Z,9.430393
2023-10-25T01:40:43.957Z,9.430347
2023-10-25T01:41:43.955Z,9.430308
2023-10-25T01:42:43.973Z,9.430340
2023-10-25T01:43:44.015Z,9.430325
2023-10-25T01:44:44.134Z,9.430336
2023-10-25T01:45:44.411Z,9.430300
2023-10-25T01:46:45.759Z,9.430306
2023-10-25T01:47:43.924Z,9.430335
2023-10-25T01:48:44.706Z,9.430341
2023-10-25T01:49:43.978Z,9.430311
2023-10-25T01:50:43.877Z,9.430318
2023-10-25T01:51:43.919Z,9.430364
2023-10-25T01:52:43.936Z,9.430334
2023-10-25T01:53:43.832Z,9.430303
2023-10-25T01:54:43.843Z,9.430353
2023-10-25T01:55:43.805Z,9.430210
2023-10-25T01:56:43.792Z,9.430285
2023-10-25T01:57:46.161Z,9.430274
2023-10-25T01:58:43.785Z,9.430291
2023-10-25T01:59:44.118Z,9.430295
2023-10-25T02:00:43.907Z,9.430256
2023-10-25T02:01:44.800Z,9.430264
2023-10-25T02:02:43.864Z,9.430234
2023-10-25T02:03:44.075Z,9.430330
2023-10-25T02:04:44.951Z,9.430358
2023-10-25T02:05:44.253Z,9.430346
2023-10-25T02:06:43.760Z,9.430310
2023-10-25T02:07:43.736Z,9.430317
2023-10-25T02:08:43.756Z,9.430263
2023-10-25T02:09:44.009Z,9.430301
2023-10-25T02:10:43.721Z,9.430315
2023-10-25T02:11:43.700Z,9.430272
2023-10-25T02:12:43.759Z,9.430275
2023-10-25T02:13:43.600Z,9.430286
2023-10-25T02:14:43.607Z,9.430325
2023-10-25T02:15:43.752Z,9.430324
2023-10-25T02:16:43.669Z,9.430290
2023-10-25T02:17:45.774Z,9.430299
2023-10-25T02:18:45.149Z,9.430271
2023-10-25T02:19:44.189Z,9.430278
2023-10-25T02:20:44.218Z,9.430292
2023-10-25T02:21:47.961Z,9.430355
2023-10-25T02:22:45.037Z,9.430365
2023-10-25T02:23:43.869Z,9.430317
2023-10-25T02:24:44.782Z,9.430307
2023-10-25T02:25:44.151Z,9.430314
2023-10-25T02:26:43.544Z,9.430327
2023-10-25T02:27:44.022Z,9.430358
2023-10-25T02:28:45.545Z,9.430339
2023-10-25T02:29:44.413Z,9.430337
2023-10-25T02:30:43.952Z,9.430297
2023-10-25T02:31:44.421Z,9.430314
2023-10-25T02:32:43.703Z,9.430339
2023-10-25T02:33:44.615Z,9.430273
2023-10-25T02:34:43.645Z,9.430336
2023-10-25T02:35:44.067Z,9.430334
2023-10-25T02:36:43.736Z,9.430295
2023-10-25T02:37:43.773Z,9.430327
2023-10-25T02:38:43.698Z,9.430343
2023-10-25T02:39:43.516Z,9.430339
2023-10-25T02:40:43.442Z,9.430332
2023-10-25T02:41:44.489Z,9.430320
2023-10-25T02:42:43.876Z,9.430313
2023-10-25T02:43:43.780Z,9.430292
2023-10-25T02:44:43.644Z,9.430331
2023-10-25T02:45:44.685Z,9.430281
2023-10-25T02:46:45.729Z,9.430365
2023-10-25T02:47:43.840Z,9.430273
2023-10-25T02:48:45.206Z,9.430398
2023-10-25T02:49:43.396Z,9.430318
2023-10-25T02:50:44.190Z,9.430424
2023-10-25T02:51:43.261Z,9.430350
2023-10-25T02:52:43.897Z,9.430325
2023-10-25T02:53:45.120Z,9.430327
2023-10-25T02:54:44.242Z,9.430366
2023-10-25T02:55:45.779Z,9.430385
2023-10-25T02:56:43.132Z,9.430370
2023-10-25T02:57:43.373Z,9.430287
2023-10-25T02:58:44.093Z,9.430298
2023-10-25T02:59:45.024Z,9.430388
2023-10-25T03:00:43.636Z,9.430383
2023-10-25T03:01:43.259Z,9.430348
2023-10-25T03:02:43.160Z,9.430346
2023-10-25T03:03:43.918Z,9.430360
2023-10-25T03:04:43.737Z,9.430377
2023-10-25T03:05:44.112Z,9.430398
2023-10-25T03:06:44.612Z,9.430383
2023-10-25T03:07:43.059Z,9.430373
2023-10-25T03:08:46.993Z,9.430430
2023-10-25T03:09:43.909Z,9.430407
2023-10-25T03:10:46.107Z,9.430351
2023-10-25T03:11:44.036Z,9.430414
2023-10-25T03:12:44.185Z,9.430410
2023-10-25T03:13:44.742Z,9.430413
2023-10-25T03:14:44.395Z,9.430391
2023-10-25T03:15:44.257Z,9.430432
2023-10-25T03:16:43.550Z,9.430450
2023-10-25T03:17:43.833Z,9.430452
2023-10-25T03:18:42.917Z,9.430429
2023-10-25T03:19:43.008Z,9.430432
2023-10-25T03:20:43.351Z,9.430411
2023-10-25T03:21:44.071Z,9.430428
2023-10-25T03:22:43.170Z,9.430447
2023-10-25T03:23:43.150Z,9.430474
2023-10-25T03:24:44.513Z,9.430464
2023-10-25T03:25:43.281Z,9.430423
2023-10-25T03:26:43.223Z,9.430435
2023-10-25T03:27:42.898Z,9.430450
2023-10-25T03:28:42.909Z,9.430471
2023-10-25T03:29:43.281Z,9.430413
2023-10-25T03:30:43.647Z,9.430445
2023-10-25T03:31:45.345Z,9.430435
2023-10-25T03:32:44.027Z,9.430387
2023-10-25T03:33:44.031Z,9.430413
2023-10-25T03:34:44.813Z,9.430381
2023-10-25T03:35:44.877Z,9.430396
2023-10-25T03:36:43.888Z,9.430382
2023-10-25T03:37:44.307Z,9.430398
2023-10-25T03:38:43.547Z,9.430382
2023-10-25T03:39:44.036Z,9.430432
2023-10-25T03:40:43.546Z,9.430398
2023-10-25T03:41:43.046Z,9.430416
2023-10-25T03:42:42.701Z,9.430390
2023-10-25T03:43:43.649Z,9.430406
2023-10-25T03:44:43.637Z,9.430380
2023-10-25T03:45:43.411Z,9.430379
2023-10-25T03:46:43.160Z,9.430390
2023-10-25T03:47:44.149Z,9.430403
2023-10-25T03:48:42.671Z,9.430374
2023-10-25T03:49:42.820Z,9.430349
2023-10-25T03:50:42.522Z,9.430375
2023-10-25T03:51:42.873Z,9.430371
2023-10-25T03:52:42.506Z,9.430339
2023-10-25T03:53:44.016Z,9.430351
2023-10-25T03:54:42.500Z,9.430393
2023-10-25T03:55:42.998Z,9.430387
2023-10-25T03:56:42.530Z,9.430386
2023-10-25T03:57:42.467Z,9.430401
2023-10-25T03:58:42.466Z,9.430381
2023-10-25T03:59:42.640Z,9.430364
2023-10-25T04:00:42.485Z,9.430367
2023-10-25T04:01:42.498Z,9.430348
2023-10-25T04:02:42.445Z,9.430330
2023-10-25T04:03:42.472Z,9.430367
2023-10-25T04:04:42.430Z,9.430377
2023-10-25T04:05:42.353Z,9.430361
2023-10-25T04:06:42.403Z,9.430373
2023-10-25T04:07:42.368Z,9.430408
2023-10-25T04:08:42.341Z,9.430389
2023-10-25T04:09:42.584Z,9.430407
2023-10-25T04:10:42.329Z,9.430374
2023-10-25T04:11:42.283Z,9.430383
2023-10-25T04:12:42.346Z,9.430377
2023-10-25T04:13:42.254Z,9.430321
2023-10-25T04:14:43.136Z,9.430385
2023-10-25T04:15:42.266Z,9.430418
2023-10-25T04:16:42.365Z,9.430380
2023-10-25T04:17:42.288Z,9.430393
2023-10-25T04:18:42.266Z,9.430388
2023-10-25T04:19:42.492Z,9.430426
2023-10-25T04:20:42.206Z,9.430388
2023-10-25T04:21:42.276Z,9.430354
2023-10-25T04:22:42.247Z,9.430399
2023-10-25T04:23:42.190Z,9.430379
2023-10-25T04:24:42.195Z,9.430376
2023-10-25T04:25:42.137Z,9.430431
2023-10-25T04:26:42.137Z,9.430412
2023-10-25T04:27:42.212Z,9.430396
2023-10-25T04:28:43.094Z,9.430456
2023-10-25T04:29:42.368Z,9.430409
2023-10-25T04:30:42.137Z,9.430395
2023-10-25T04:31:42.233Z,9.430369
2023-10-25T04:32:42.080Z,9.430364
2023-10-25T04:33:43.052Z,9.430367
2023-10-25T04:34:42.020Z,9.430411
2023-10-25T04:35:42.006Z,9.430388
2023-10-25T04:36:42.041Z,9.430363
2023-10-25T04:37:42.026Z,9.430337
2023-10-25T04:38:42.003Z,9.430363
2023-10-25T04:39:42.257Z,9.430357
2023-10-25T04:40:42.028Z,9.430329
2023-10-25T04:41:41.958Z,9.430395
2023-10-25T04:42:42.186Z,9.430371
2023-10-25T04:43:41.954Z,9.430312
2023-10-25T04:44:41.900Z,9.430345
2023-10-25T04:45:41.941Z,9.430369
2023-10-25T04:46:41.950Z,9.430311
2023-10-25T04:47:42.032Z,9.430355
2023-10-25T04:48:41.882Z,9.430341
2023-10-25T04:49:42.039Z,9.430410
2023-10-25T04:50:41.837Z,9.430379
2023-10-25T04:51:41.841Z,9.430359
2023-10-25T04:52:41.846Z,9.430326
2023-10-25T04:53:41.825Z,9.430307
2023-10-25T04:54:41.832Z,9.430320
2023-10-25T04:55:41.798Z,9.430337
2023-10-25T04:56:41.776Z,9.430339
2023-10-25T04:57:41.832Z,9.430361
2023-10-25T04:58:41.783Z,9.430328
2023-10-25T04:59:41.938Z,9.430323
2023-10-25T05:00:41.780Z,9.430319
2023-10-25T05:01:41.793Z,9.430368
2023-10-25T05:02:41.721Z,9.430350
2023-10-25T05:03:41.834Z,9.430345
2023-10-25T05:04:41.730Z,9.430285
2023-10-25T05:05:41.713Z,9.430314
2023-10-25T05:06:41.738Z,9.430311
2023-10-25T05:07:41.677Z,9.430360
2023-10-25T05:08:41.649Z,9.430419
2023-10-25T05:09:41.841Z,9.430387
2023-10-25T05:10:41.630Z,9.430349
2023-10-25T05:11:41.671Z,9.430304
2023-10-25T05:12:41.620Z,9.430286
2023-10-25T05:13:41.601Z,9.430327
2023-10-25T05:14:42.510Z,9.430317
2023-10-25T05:15:41.710Z,9.430352
2023-10-25T05:16:41.670Z,9.430360
2023-10-25T05:17:41.581Z,9.430382
2023-10-25T05:18:41.529Z,9.430326
2023-10-25T05:19:41.697Z,9.430348
2023-10-25T05:20:41.518Z,9.430345
2023-10-25T05:21:41.532Z,9.430387
2023-10-25T05:22:41.534Z,9.430371
2023-10-25T05:23:41.464Z,9.430378
2023-10-25T05:24:41.525Z,9.430344
2023-10-25T05:25:41.467Z,9.430331
2023-10-25T05:26:41.443Z,9.430338
2023-10-25T05:27:41.503Z,9.430368
2023-10-25T05:28:41.420Z,9.430353
2023-10-25T05:29:42.254Z,9.430345
2023-10-25T05:30:41.430Z,9.430324
2023-10-25T05:31:41.495Z,9.430344
2023-10-25T05:32:41.402Z,9.430356
2023-10-25T05:33:41.374Z,9.430351
2023-10-25T05:34:41.355Z,9.430352
2023-10-25T05:35:41.343Z,9.430356
2023-10-25T05:36:41.339Z,9.430333
2023-10-25T05:37:41.381Z,9.430336
2023-10-25T05:38:41.301Z,9.430340
2023-10-25T05:39:41.582Z,9.430344
2023-10-25T05:40:41.317Z,9.430341
2023-10-25T05:41:41.271Z,9.430338
2023-10-25T05:42:41.339Z,9.430350
2023-10-25T05:43:41.287Z,9.430365
2023-10-25T05:44:41.291Z,9.430356
2023-10-25T05:45:42.100Z,9.430376
2023-10-25T05:46:41.396Z,9.430349
2023-10-25T05:47:41.364Z,9.430314
2023-10-25T05:48:41.623Z,9.430343
2023-10-25T05:49:41.565Z,9.430322
2023-10-25T05:50:41.294Z,9.430345
2023-10-25T05:51:41.185Z,9.430363
2023-10-25T05:52:41.225Z,9.430373
2023-10-25T05:53:41.198Z,9.430350
2023-10-25T05:54:41.350Z,9.430350
2023-10-25T05:55:41.118Z,9.430363
2023-10-25T05:56:41.116Z,9.430372
2023-10-25T05:57:41.105Z,9.430366
2023-10-25T05:58:41.133Z,9.430347
2023-10-25T05:59:41.068Z,9.430356
2023-10-25T06:00:41.060Z,9.430347
2023-10-25T06:01:41.106Z,9.430351
2023-10-25T06:02:41.113Z,9.430347
2023-10-25T06:03:41.032Z,9.430345
2023-10-25T06:04:42.431Z,9.430361
2023-10-25T06:05:41.000Z,9.430337
2023-10-25T06:06:41.024Z,9.430366
2023-10-25T06:07:41.011Z,9.430367
2023-10-25T06:08:40.977Z,9.430353
2023-10-25T06:09:41.055Z,9.430350
2023-10-25T06:10:40.994Z,9.430365
2023-10-25T06:11:40.952Z,9.430349
2023-10-25T06:12:40.953Z,9.430320
2023-10-25T06:13:40.925Z,9.430338
2023-10-25T06:14:41.087Z,9.430370
2023-10-25T06:15:40.973Z,9.430347
2023-10-25T06:16:41.024Z,9.430355
2023-10-25T06:17:40.949Z,9.430370
2023-10-25T06:18:40.925Z,9.430370
2023-10-25T06:19:40.866Z,9.430379
2023-10-25T06:20:40.965Z,9.430338
2023-10-25T06:21:40.851Z,9.430353
2023-10-25T06:22:40.805Z,9.430331
2023-10-25T06:23:40.834Z,9.430344
2023-10-25T06:24:40.995Z,9.430343
2023-10-25T06:25:40.784Z,9.430311
2023-10-25T06:26:40.789Z,9.430246
2023-10-25T06:27:40.769Z,9.430332
2023-10-25T06:28:40.757Z,9.430302
2023-10-25T06:29:40.787Z,9.430333
2023-10-25T06:30:40.743Z,9.430318
2023-10-25T06:31:40.777Z,9.430332
2023-10-25T06:32:40.757Z,9.430294
2023-10-25T06:33:40.733Z,9.430336
2023-10-25T06:34:40.978Z,9.430394
2023-10-25T06:35:40.736Z,9.430359
2023-10-25T06:36:40.961Z,9.430315
2023-10-25T06:37:41.868Z,9.430326
2023-10-25T06:38:41.107Z,9.430293
2023-10-25T06:39:40.660Z,9.430315
2023-10-25T06:40:42.810Z,9.430350
2023-10-25T06:41:40.761Z,9.430377
2023-10-25T06:42:40.799Z,9.430364
2023-10-25T06:43:41.223Z,9.430352
2023-10-25T06:44:41.067Z,9.430367
2023-10-25T06:45:40.992Z,9.430348
2023-10-25T06:46:40.703Z,9.430324
2023-10-25T06:47:40.619Z,9.430370
2023-10-25T06:48:40.648Z,9.430317
2023-10-25T06:49:40.515Z,9.430327
2023-10-25T06:50:40.538Z,9.430345
2023-10-25T06:51:40.515Z,9.430353
2023-10-25T06:52:40.722Z,9.430354
2023-10-25T06:53:40.618Z,9.430327
2023-10-25T06:54:40.924Z,9.430326
2023-10-25T06:55:40.537Z,9.430356
2023-10-25T06:56:40.533Z,9.430329
2023-10-25T06:57:40.579Z,9.430341
2023-10-25T06:58:40.730Z,9.430323
2023-10-25T06:59:40.570Z,9.430310
2023-10-25T07:00:41.358Z,9.430338
2023-10-25T07:01:40.597Z,9.430313
2023-10-25T07:02:40.684Z,9.430317
2023-10-25T07:03:40.843Z,9.430344
2023-10-25T07:04:40.839Z,9.430322
2023-10-25T07:05:40.683Z,9.430316
2023-10-25T07:06:40.322Z,9.430291
2023-10-25T07:07:41.927Z,9.430311
2023-10-25T07:08:40.502Z,9.430331
2023-10-25T07:09:41.309Z,9.430316
2023-10-25T07:10:40.652Z,9.430321
2023-10-25T07:11:40.621Z,9.430343
2023-10-25T07:12:40.432Z,9.430327
2023-10-25T07:13:40.358Z,9.430343
2023-10-25T07:14:40.487Z,9.430342
2023-10-25T07:15:40.380Z,9.430366
2023-10-25T07:16:40.445Z,9.430363
2023-10-25T07:17:40.683Z,9.430332
2023-10-25T07:18:40.733Z,9.430335
2023-10-25T07:19:40.266Z,9.430336
2023-10-25T07:20:40.472Z,9.430349
2023-10-25T07:21:40.676Z,9.430330
2023-10-25T07:22:40.608Z,9.430357
2023-10-25T07:23:40.288Z,9.430371
2023-10-25T07:24:40.243Z,9.430351
2023-10-25T07:25:40.170Z,9.430280
2023-10-25T07:26:42.250Z,9.430337
2023-10-25T07:27:40.197Z,9.430337
2023-10-25T07:28:41.062Z,9.430368
2023-10-25T07:29:40.116Z,9.430385
2023-10-25T07:30:40.092Z,9.430338
2023-10-25T07:31:40.110Z,9.430329
2023-10-25T07:32:40.096Z,9.430365
2023-10-25T07:33:40.059Z,9.430348
2023-10-25T07:34:40.106Z,9.430345
2023-10-25T07:35:40.078Z,9.430285
2023-10-25T07:36:40.030Z,9.430316
2023-10-25T07:37:40.000Z,9.430342
2023-10-25T07:38:40.002Z,9.430365
2023-10-25T07:39:39.982Z,9.430331
2023-10-25T07:40:40.091Z,9.430375
2023-10-25T07:41:39.995Z,9.430357
2023-10-25T07:42:39.998Z,9.430326
2023-10-25T07:43:39.942Z,9.430299
2023-10-25T07:44:39.989Z,9.430373
2023-10-25T07:45:39.938Z,9.430338
2023-10-25T07:46:40.079Z,9.430349
2023-10-25T07:47:39.902Z,9.430352
2023-10-25T07:48:39.877Z,9.430359
2023-10-25T07:49:39.977Z,9.430350
2023-10-25T07:50:39.871Z,9.430297
2023-10-25T07:51:39.881Z,9.430333
2023-10-25T07:52:39.860Z,9.430330
2023-10-25T07:53:39.830Z,9.430368
2023-10-25T07:54:39.820Z,9.430395
2023-10-25T07:56:43.363Z,9.430366
2023-10-25T07:58:19.266Z,9.430309
2023-10-25T07:58:41.807Z,9.430275
2023-10-25T07:59:39.783Z,9.430307
2023-10-25T08:00:39.761Z,9.430301
2023-10-25T08:01:39.817Z,9.430292
2023-10-25T08:02:39.874Z,9.430329
2023-10-25T08:03:40.026Z,9.430312
2023-10-25T08:04:39.838Z,9.430331
2023-10-25T08:05:39.708Z,9.430346
2023-10-25T08:06:39.683Z,9.430307
2023-10-25T08:07:39.905Z,9.430334
2023-10-25T08:08:39.721Z,9.430341
2023-10-25T08:09:39.651Z,9.430367
2023-10-25T08:10:39.637Z,9.430319
2023-10-25T08:11:39.672Z,9.430341
2023-10-25T08:12:39.603Z,9.430381
2023-10-25T08:13:39.639Z,9.430455
2023-10-25T08:14:39.678Z,9.430335
2023-10-25T08:15:39.591Z,9.430354
2023-10-25T08:16:39.577Z,9.430448
2023-10-25T08:17:39.694Z,9.430405
2023-10-25T08:18:39.697Z,9.430337
2023-10-25T08:19:39.553Z,9.430397
2023-10-25T08:20:39.609Z,9.430399
2023-10-25T08:21:39.521Z,9.430416
2023-10-25T08:22:39.517Z,9.430414
2023-10-25T08:23:39.559Z,9.430370
2023-10-25T08:24:39.520Z,9.430430
2023-10-25T08:25:40.069Z,9.430372
2023-10-25T08:26:39.503Z,9.430395
2023-10-25T08:27:39.512Z,9.430376
2023-10-25T08:28:39.455Z,9.430390
2023-10-25T08:29:39.475Z,9.430384
2023-10-25T08:30:39.435Z,9.430394
2023-10-25T08:31:39.441Z,9.430352
2023-10-25T08:32:39.494Z,9.430398
2023-10-25T08:33:39.454Z,9.430397
2023-10-25T08:34:39.389Z,9.430383
2023-10-25T08:35:39.451Z,9.430342
2023-10-25T08:36:39.363Z,9.430322
2023-10-25T08:37:41.503Z,9.430301
2023-10-25T08:38:39.382Z,9.430391
2023-10-25T08:39:39.363Z,9.430313
2023-10-25T08:40:39.331Z,9.430330
2023-10-25T08:41:39.356Z,9.430325
2023-10-25T08:42:39.359Z,9.430346
2023-10-25T08:43:39.305Z,9.430294
2023-10-25T08:44:39.319Z,9.430367
2023-10-25T08:45:39.395Z,9.430368
2023-10-25T08:46:39.246Z,9.430294
2023-10-25T08:47:39.297Z,9.430318
2023-10-25T08:48:40.098Z,9.430322
2023-10-25T08:49:39.224Z,9.430315
2023-10-25T08:50:39.598Z,9.430326
2023-10-25T08:51:39.299Z,9.430357
2023-10-25T08:52:39.968Z,9.430367
2023-10-25T08:53:39.233Z,9.430363
2023-10-25T08:54:39.173Z,9.430366
2023-10-25T08:55:39.146Z,9.430370
2023-10-25T08:56:40.068Z,9.430348
2023-10-25T08:57:39.127Z,9.430375
2023-10-25T08:58:39.112Z,9.430368
2023-10-25T08:59:41.013Z,9.430334
2023-10-25T09:00:50.233Z,9.430383
2023-10-25T09:01:41.180Z,9.430408
2023-10-25T09:02:39.155Z,9.430415
2023-10-25T09:03:40.203Z,9.430404
2023-10-25T09:04:39.122Z,9.430362
2023-10-25T09:05:39.109Z,9.430354
2023-10-25T09:06:39.113Z,9.430362
2023-10-25T09:07:39.191Z,9.430357
2023-10-25T09:08:39.122Z,9.430346
2023-10-25T09:09:38.981Z,9.430355
2023-10-25T09:10:38.970Z,9.430394
2023-10-25T09:11:39.078Z,9.430318
2023-10-25T09:12:38.955Z,9.430305
2023-10-25T09:13:38.946Z,9.430401
2023-10-25T09:14:39.053Z,9.430445
2023-10-25T09:15:38.958Z,9.430378
2023-10-25T09:16:38.910Z,9.430365
2023-10-25T09:17:38.981Z,9.430341
2023-10-25T09:18:39.044Z,9.430331
2023-10-25T09:19:38.906Z,9.430329
2023-10-25T09:20:38.881Z,9.430338
2023-10-25T09:21:39.579Z,9.430331
2023-10-25T09:22:38.891Z,9.430333
2023-10-25T09:23:39.573Z,9.430323
2023-10-25T09:24:38.901Z,9.430331
2023-10-25T09:25:39.095Z,9.430341
2023-10-25T09:26:38.827Z,9.430326
2023-10-25T09:27:38.830Z,9.430342
2023-10-25T09:28:38.782Z,9.430344
2023-10-25T09:29:39.050Z,9.430341
2023-10-25T09:30:38.841Z,9.430357
2023-10-25T09:31:38.775Z,9.430366
2023-10-25T09:32:38.854Z,9.430344
2023-10-25T09:33:38.757Z,9.430342
2023-10-25T09:34:38.735Z,9.430361
2023-10-25T09:35:38.835Z,9.430299
2023-10-25T09:36:38.705Z,9.430349
2023-10-25T09:37:38.701Z,9.430274
2023-10-25T09:38:38.676Z,9.430317
2023-10-25T09:39:38.700Z,9.430336
2023-10-25T09:40:39.559Z,9.430333
2023-10-25T09:41:38.701Z,9.430298
2023-10-25T09:42:39.684Z,9.430303
2023-10-25T09:43:38.838Z,9.430343
2023-10-25T09:44:38.720Z,9.430356
2023-10-25T09:45:38.617Z,9.430363
2023-10-25T09:46:38.690Z,9.430355
2023-10-25T09:47:38.646Z,9.430338
2023-10-25T09:48:38.624Z,9.430358
2023-10-25T09:49:38.567Z,9.430334
2023-10-25T09:50:38.676Z,9.430303
2023-10-25T09:51:38.649Z,9.430316
2023-10-25T09:52:38.568Z,9.430329
2023-10-25T09:53:38.692Z,9.430287
2023-10-25T09:54:38.606Z,9.430323
2023-10-25T09:55:38.520Z,9.430343
2023-10-25T09:56:38.585Z,9.430330
2023-10-25T09:57:38.547Z,9.430320
2023-10-25T09:58:38.456Z,9.430339
2023-10-25T09:59:38.513Z,9.430326
2023-10-25T10:00:38.482Z,9.430317
2023-10-25T10:01:38.438Z,9.430321
2023-10-25T10:02:38.526Z,9.430328
2023-10-25T10:03:39.093Z,9.430362
2023-10-25T10:04:38.370Z,9.430346
2023-10-25T10:05:38.588Z,9.430346
2023-10-25T10:06:38.411Z,9.430346
2023-10-25T10:07:38.414Z,9.430318
2023-10-25T10:08:38.368Z,9.430339
2023-10-25T10:09:38.354Z,9.430352
2023-10-25T10:10:38.322Z,9.430316
2023-10-25T10:11:38.344Z,9.430365
2023-10-25T10:12:38.318Z,9.430355
2023-10-25T10:13:38.304Z,9.430353
2023-10-25T10:14:38.454Z,9.430285
2023-10-25T10:15:38.272Z,9.430299
2023-10-25T10:16:38.285Z,9.430319
2023-10-25T10:17:38.326Z,9.430351
2023-10-25T10:18:38.350Z,9.430372
2023-10-25T10:19:38.246Z,9.430334
2023-10-25T10:20:38.292Z,9.430326
2023-10-25T10:21:38.515Z,9.430365
2023-10-25T10:22:38.194Z,9.430312
2023-10-25T10:23:38.232Z,9.430318
2023-10-25T10:24:38.210Z,9.430307
2023-10-25T10:25:38.153Z,9.430334
2023-10-25T10:26:38.231Z,9.430311
2023-10-25T10:27:38.279Z,9.430305
2023-10-25T10:28:38.139Z,9.430366
2023-10-25T10:29:38.208Z,9.430327
2023-10-25T10:30:38.149Z,9.430349
2023-10-25T10:31:38.089Z,9.430367
2023-10-25T10:32:38.107Z,9.430352
2023-10-25T10:33:38.131Z,9.430341
2023-10-25T10:34:38.104Z,9.430372
2023-10-25T10:35:38.057Z,9.430358
2023-10-25T10:36:40.577Z,9.430364
2023-10-25T10:37:38.055Z,9.430365
2023-10-25T10:38:38.053Z,9.430360
2023-10-25T10:39:38.013Z,9.430321
2023-10-25T10:40:38.043Z,9.430263
2023-10-25T10:41:37.998Z,9.430274
2023-10-25T10:42:38.994Z,9.430288
2023-10-25T10:43:37.969Z,9.430326
2023-10-25T10:44:37.964Z,9.430307
2023-10-25T10:45:37.982Z,9.430287
2023-10-25T10:46:38.172Z,9.430281
2023-10-25T10:47:38.232Z,9.430337
2023-10-25T10:48:37.973Z,9.430308
2023-10-25T10:49:38.895Z,9.430280
2023-10-25T10:50:37.997Z,9.430273
2023-10-25T10:51:37.893Z,9.430285
2023-10-25T10:52:37.905Z,9.430325
2023-10-25T10:53:37.880Z,9.430293
2023-10-25T10:54:37.877Z,9.430311
2023-10-25T10:55:37.859Z,9.430330
2023-10-25T10:56:37.869Z,9.430340
2023-10-25T10:57:38.768Z,9.430298
2023-10-25T10:58:37.800Z,9.430298
2023-10-25T10:59:38.562Z,9.430353
2023-10-25T11:00:37.862Z,9.430332
2023-10-25T11:01:37.800Z,9.430280
2023-10-25T11:02:37.928Z,9.430315
2023-10-25T11:03:37.932Z,9.430333
2023-10-25T11:04:38.290Z,9.430318
2023-10-25T11:05:37.999Z,9.430342
2023-10-25T11:06:37.781Z,9.430347
2023-10-25T11:07:37.724Z,9.430296
2023-10-25T11:08:37.705Z,9.430321
2023-10-25T11:09:38.547Z,9.430305
2023-10-25T11:10:38.700Z,9.430308
2023-10-25T11:11:37.679Z,9.430300
2023-10-25T11:12:37.702Z,9.430351
2023-10-25T11:13:37.734Z,9.430345
2023-10-25T11:14:37.748Z,9.430366
2023-10-25T11:15:37.652Z,9.430382
2023-10-25T11:16:37.602Z,9.430385
2023-10-25T11:17:37.681Z,9.430299
2023-10-25T11:18:37.780Z,9.430270
2023-10-25T11:19:37.739Z,9.430283
2023-10-25T11:20:37.582Z,9.430328
2023-10-25T11:21:37.667Z,9.430365
2023-10-25T11:22:37.718Z,9.430293
2023-10-25T11:23:37.589Z,9.430253
2023-10-25T11:24:37.817Z,9.430244
2023-10-25T11:25:38.071Z,9.430281
2023-10-25T11:26:37.647Z,9.430328
2023-10-25T11:27:37.766Z,9.430349
2023-10-25T11:28:37.978Z,9.430320
2023-10-25T11:29:37.512Z,9.430341
2023-10-25T11:30:37.470Z,9.430338
2023-10-25T11:31:37.796Z,9.430295
2023-10-25T11:32:37.469Z,9.430279
2023-10-25T11:33:37.495Z,9.430329
2023-10-25T11:34:37.904Z,9.430329
2023-10-25T11:35:37.484Z,9.430359
2023-10-25T11:36:37.380Z,9.430292
2023-10-25T11:37:37.616Z,9.430326
2023-10-25T11:38:37.397Z,9.430322
2023-10-25T11:39:37.449Z,9.430320
2023-10-25T11:40:37.411Z,9.430317
2023-10-25T11:41:37.471Z,9.430316
2023-10-25T11:42:37.312Z,9.430346
2023-10-25T11:43:37.290Z,9.430371
2023-10-25T11:44:37.493Z,9.430368
2023-10-25T11:45:37.322Z,9.430359